Time;durP1;ratioP1;P1;durP2;ratioP2;P2;SDS_P1;SDS_P2;PMS_P1;PMS_P2;Temp;Humidity;BMP_temperature;BMP_pressure;BME280_temperature;BME280_humidity;BME280_pressure;Samples;Min_cycle;Max_cycle;Signal;HPM_P1;HPM_P2
2023/12/22 00:01:16;;;;;;;2.57;0.70;;;3.80;99.90;;;;;;4912620;29;20208;-77
2023/12/22 00:03:42;;;;;;;1.23;0.77;;;3.70;99.90;;;;;;4928072;29;21403;-76
2023/12/22 00:06:08;;;;;;;1.50;0.83;;;3.70;99.90;;;;;;4929687;29;20443;-76
2023/12/22 00:08:33;;;;;;;0.80;0.60;;;3.60;99.90;;;;;;4927704;29;20410;-78
2023/12/22 00:10:59;;;;;;;1.53;0.60;;;3.70;99.90;;;;;;4926628;29;20209;-77
2023/12/22 00:13:25;;;;;;;1.20;0.70;;;3.70;99.90;;;;;;4926190;29;20174;-77
2023/12/22 00:15:51;;;;;;;0.87;0.60;;;3.70;99.90;;;;;;4926949;29;20273;-77
2023/12/22 00:18:16;;;;;;;0.73;0.50;;;3.70;99.90;;;;;;4906199;29;20203;-77
2023/12/22 00:20:42;;;;;;;0.90;0.53;;;3.70;99.90;;;;;;4926428;29;20217;-77
2023/12/22 00:23:07;;;;;;;1.00;0.53;;;3.80;99.90;;;;;;4910313;29;20250;-77
2023/12/22 00:25:33;;;;;;;1.00;0.50;;;3.80;99.90;;;;;;4916797;29;20215;-78
2023/12/22 00:27:58;;;;;;;0.90;0.50;;;3.80;99.90;;;;;;4911208;29;20267;-79
2023/12/22 00:30:24;;;;;;;0.67;0.43;;;3.90;99.90;;;;;;4907513;29;20179;-77
2023/12/22 00:32:50;;;;;;;0.87;0.60;;;4.00;99.90;;;;;;4911276;29;20525;-77
2023/12/22 00:35:16;;;;;;;1.47;0.60;;;4.10;99.90;;;;;;4909953;29;20211;-77
2023/12/22 00:37:41;;;;;;;0.80;0.53;;;4.20;99.90;;;;;;4909926;29;20725;-77
2023/12/22 00:40:09;;;;;;;0.90;0.60;;;4.20;99.90;;;;;;4908127;29;20218;-77
2023/12/22 00:42:34;;;;;;;0.77;0.40;;;4.20;99.90;;;;;;4908315;29;20183;-76
2023/12/22 00:45:00;;;;;;;0.83;0.53;;;4.30;99.90;;;;;;4913358;29;20479;-77
2023/12/22 00:47:26;;;;;;;0.60;0.40;;;4.40;99.90;;;;;;4910427;29;20222;-78
2023/12/22 00:49:53;;;;;;;0.70;0.50;;;4.40;99.90;;;;;;4907220;29;20195;-77
2023/12/22 00:52:18;;;;;;;0.90;0.50;;;4.40;99.90;;;;;;4908410;29;20195;-76
2023/12/22 00:54:44;;;;;;;0.80;0.60;;;4.50;99.90;;;;;;4910255;29;20740;-77
2023/12/22 00:57:09;;;;;;;0.90;0.60;;;4.50;99.90;;;;;;4907655;29;20253;-77
2023/12/22 00:59:35;;;;;;;0.70;0.50;;;4.50;99.90;;;;;;4906588;29;20211;-77
2023/12/22 01:02:01;;;;;;;0.90;0.50;;;4.50;99.90;;;;;;4905764;29;20538;-76
2023/12/22 01:04:26;;;;;;;0.80;0.50;;;4.60;99.90;;;;;;4906593;29;20588;-76
2023/12/22 01:06:52;;;;;;;0.80;0.40;;;4.60;99.90;;;;;;4905493;29;20227;-77
2023/12/22 01:09:19;;;;;;;1.43;0.53;;;4.60;99.90;;;;;;4910295;29;20198;-76
2023/12/22 01:11:45;;;;;;;2.10;0.50;;;4.60;99.90;;;;;;4908944;29;20487;-77
2023/12/22 01:14:13;;;;;;;0.70;0.43;;;4.70;99.90;;;;;;4908117;29;20431;-77
2023/12/22 01:16:39;;;;;;;0.63;0.47;;;4.70;99.90;;;;;;4906571;29;20482;-78
2023/12/22 01:19:05;;;;;;;1.27;0.57;;;4.70;99.90;;;;;;4906783;29;20462;-77
2023/12/22 01:21:31;;;;;;;0.60;0.40;;;4.70;99.90;;;;;;4909733;29;20701;-76
2023/12/22 01:23:58;;;;;;;0.90;0.50;;;4.70;99.90;;;;;;4906497;29;20519;-75
2023/12/22 01:26:24;;;;;;;0.90;0.50;;;4.70;99.90;;;;;;4906385;29;20569;-75
2023/12/22 01:28:50;;;;;;;0.60;0.40;;;4.80;99.90;;;;;;4907447;29;20498;-76
2023/12/22 01:31:15;;;;;;;0.70;0.50;;;4.80;99.90;;;;;;4908266;29;20207;-76
2023/12/22 01:33:41;;;;;;;0.60;0.40;;;4.80;99.90;;;;;;4907832;29;20194;-76
2023/12/22 01:36:06;;;;;;;0.60;0.30;;;4.80;99.90;;;;;;4908967;29;20267;-77
2023/12/22 01:38:32;;;;;;;0.80;0.50;;;4.80;99.90;;;;;;4908504;29;20194;-76
2023/12/22 01:40:57;;;;;;;1.00;0.57;;;4.80;99.90;;;;;;4908451;29;20211;-76
2023/12/22 01:43:23;;;;;;;0.60;0.40;;;4.80;99.90;;;;;;4910649;29;20195;-77
2023/12/22 01:45:55;;;;;;;0.80;0.50;;;4.80;99.90;;;;;;4908313;29;20619;-75
2023/12/22 01:48:23;;;;;;;1.30;0.60;;;4.80;99.90;;;;;;4901330;29;20836;-77
2023/12/22 01:50:50;;;;;;;0.80;0.50;;;4.80;99.90;;;;;;4906716;29;20423;-77
2023/12/22 01:53:16;;;;;;;0.90;0.50;;;4.80;99.90;;;;;;4906402;29;20452;-76
2023/12/22 01:55:42;;;;;;;0.60;0.40;;;4.90;99.90;;;;;;4891425;29;20448;-76
2023/12/22 01:58:10;;;;;;;0.60;0.50;;;4.90;99.90;;;;;;4909340;29;20187;-76
2023/12/22 02:00:35;;;;;;;0.90;0.50;;;4.90;99.90;;;;;;4906214;29;20471;-75
2023/12/22 02:03:01;;;;;;;1.10;0.50;;;4.90;99.90;;;;;;4902661;29;20511;-76
2023/12/22 02:05:29;;;;;;;0.93;0.50;;;4.80;99.90;;;;;;4906680;29;20219;-76
2023/12/22 02:07:55;;;;;;;0.80;0.40;;;4.80;99.90;;;;;;4905396;29;20427;-75
2023/12/22 02:10:20;;;;;;;1.57;0.50;;;4.80;99.90;;;;;;4905119;29;20420;-76
2023/12/22 02:12:46;;;;;;;0.60;0.40;;;4.70;99.90;;;;;;4904737;29;20243;-75
2023/12/22 02:15:12;;;;;;;0.83;0.50;;;4.60;99.90;;;;;;4905055;29;20233;-77
2023/12/22 02:17:44;;;;;;;0.70;0.40;;;4.50;99.90;;;;;;4909484;29;20195;-77
2023/12/22 02:20:10;;;;;;;0.70;0.40;;;4.40;99.90;;;;;;4908386;29;20227;-75
2023/12/22 02:22:35;;;;;;;0.70;0.50;;;4.30;99.90;;;;;;4903273;29;20438;-76
2023/12/22 02:25:01;;;;;;;0.80;0.50;;;4.30;99.90;;;;;;4901883;29;20454;-76
2023/12/22 02:27:49;;;;;;;0.60;0.40;;;4.20;99.90;;;;;;4901289;29;20572;-76
2023/12/22 02:30:31;;;;;;;0.70;0.43;;;4.20;99.90;;;;;;4901047;29;20203;-76
2023/12/22 02:33:04;;;;;;;0.80;0.40;;;4.30;99.90;;;;;;4901018;29;20881;-77
2023/12/22 02:35:32;;;;;;;0.73;0.50;;;4.40;99.90;;;;;;4900955;29;20523;-75
2023/12/22 02:37:59;;;;;;;0.60;0.40;;;4.50;99.90;;;;;;4901890;29;20502;-76
2023/12/22 02:40:25;;;;;;;0.70;0.40;;;4.60;99.90;;;;;;4900505;29;20459;-76
2023/12/22 02:42:52;;;;;;;1.83;0.60;;;4.70;99.90;;;;;;4900428;29;20898;-78
2023/12/22 02:45:19;;;;;;;0.80;0.50;;;4.70;99.90;;;;;;4899327;29;20883;-76
2023/12/22 02:47:45;;;;;;;0.70;0.50;;;4.70;99.90;;;;;;4900260;29;20561;-76
2023/12/22 02:50:13;;;;;;;0.63;0.50;;;4.80;99.90;;;;;;4899852;29;20444;-75
2023/12/22 02:52:38;;;;;;;1.50;0.50;;;4.80;99.90;;;;;;4900375;29;20424;-75
2023/12/22 02:55:05;;;;;;;0.80;0.50;;;4.90;99.90;;;;;;4900227;29;20930;-74
2023/12/22 02:57:31;;;;;;;1.10;0.70;;;4.80;99.90;;;;;;4899061;29;20503;-75
2023/12/22 02:59:57;;;;;;;1.93;0.50;;;4.80;99.90;;;;;;4900010;29;20455;-76
2023/12/22 03:02:23;;;;;;;0.90;0.60;;;4.70;99.90;;;;;;4899928;29;20208;-75
2023/12/22 03:04:48;;;;;;;1.20;0.60;;;4.60;99.90;;;;;;4900022;29;20426;-75
2023/12/22 03:07:15;;;;;;;0.73;0.47;;;4.60;99.90;;;;;;4899655;29;20186;-75
2023/12/22 03:09:41;;;;;;;1.17;0.53;;;4.50;99.90;;;;;;4899851;29;20191;-76
2023/12/22 03:12:08;;;;;;;0.73;0.57;;;4.50;99.90;;;;;;4899580;29;20698;-75
2023/12/22 03:14:34;;;;;;;0.70;0.50;;;4.50;99.90;;;;;;4899507;29;20454;-75
2023/12/22 03:17:00;;;;;;;0.60;0.40;;;4.50;99.90;;;;;;4899536;29;20418;-75
2023/12/22 03:19:26;;;;;;;0.90;0.50;;;4.40;99.90;;;;;;4899186;29;20914;-75
2023/12/22 03:21:51;;;;;;;0.70;0.40;;;4.40;99.90;;;;;;4899420;29;20487;-75
2023/12/22 03:24:19;;;;;;;0.70;0.40;;;4.40;99.90;;;;;;4900168;29;20190;-75
2023/12/22 03:26:45;;;;;;;0.93;0.40;;;4.30;99.90;;;;;;4899928;29;20199;-75
2023/12/22 03:29:11;;;;;;;0.63;0.40;;;4.30;99.90;;;;;;4899630;29;20462;-75
2023/12/22 03:31:36;;;;;;;0.80;0.50;;;4.40;99.90;;;;;;4899698;29;20454;-75
2023/12/22 03:34:02;;;;;;;0.70;0.50;;;4.40;99.90;;;;;;4899287;29;20203;-76
2023/12/22 03:36:27;;;;;;;0.60;0.40;;;4.50;99.90;;;;;;4899949;29;20217;-75
2023/12/22 03:38:53;;;;;;;0.70;0.40;;;4.60;99.90;;;;;;4899587;29;20179;-75
2023/12/22 03:41:19;;;;;;;3.00;0.50;;;4.70;99.90;;;;;;4900233;29;20214;-74
2023/12/22 03:43:44;;;;;;;0.70;0.50;;;4.80;99.90;;;;;;4900049;29;20191;-74
2023/12/22 03:46:10;;;;;;;0.80;0.50;;;4.90;99.90;;;;;;4900212;29;20571;-76
2023/12/22 03:48:35;;;;;;;1.37;0.50;;;4.90;99.90;;;;;;4900481;29;20211;-75
2023/12/22 03:51:01;;;;;;;0.70;0.50;;;5.00;99.90;;;;;;4899898;29;20587;-74
2023/12/22 03:53:26;;;;;;;0.90;0.67;;;5.00;99.90;;;;;;4899031;29;20203;-75
2023/12/22 03:55:52;;;;;;;1.37;0.50;;;5.10;99.90;;;;;;4897973;29;20677;-75
2023/12/22 03:58:17;;;;;;;1.80;0.70;;;5.10;99.90;;;;;;4898159;29;20249;-75
2023/12/22 04:00:43;;;;;;;1.40;0.60;;;5.20;99.90;;;;;;4899531;29;20214;-74
2023/12/22 04:03:09;;;;;;;1.70;0.60;;;5.20;99.90;;;;;;4899201;29;20607;-76
2023/12/22 04:05:34;;;;;;;2.10;0.73;;;5.20;99.90;;;;;;4899164;29;20219;-74
2023/12/22 04:08:00;;;;;;;3.73;1.17;;;5.20;99.90;;;;;;4898588;29;20273;-76
2023/12/22 04:10:25;;;;;;;2.40;0.97;;;5.20;99.90;;;;;;4898583;29;20218;-76
2023/12/22 04:12:51;;;;;;;6.63;1.03;;;5.10;99.90;;;;;;4899062;29;20427;-75
2023/12/22 04:15:16;;;;;;;1.60;1.07;;;5.10;99.90;;;;;;4898791;29;20205;-75
2023/12/22 04:17:42;;;;;;;3.47;1.10;;;5.10;99.90;;;;;;4898591;29;20191;-77
2023/12/22 04:20:08;;;;;;;4.67;1.50;;;5.00;99.90;;;;;;4900045;29;20321;-77
2023/12/22 04:22:33;;;;;;;3.87;1.43;;;4.90;99.90;;;;;;4900078;29;20195;-76
2023/12/22 04:24:59;;;;;;;2.87;1.20;;;4.90;99.90;;;;;;4897839;29;20609;-76
2023/12/22 04:27:24;;;;;;;2.30;1.60;;;4.80;99.90;;;;;;4898491;29;20373;-76
2023/12/22 04:29:50;;;;;;;9.60;2.40;;;4.90;99.90;;;;;;4898858;29;20888;-76
2023/12/22 04:32:16;;;;;;;11.40;1.80;;;4.90;99.90;;;;;;4897809;29;20200;-76
2023/12/22 04:34:41;;;;;;;10.40;1.90;;;4.90;99.90;;;;;;4898800;29;20199;-75
2023/12/22 04:37:07;;;;;;;6.07;2.40;;;4.90;99.90;;;;;;4898243;29;20199;-76
2023/12/22 04:39:32;;;;;;;9.47;2.03;;;4.90;99.90;;;;;;4898568;29;20221;-76
2023/12/22 04:41:58;;;;;;;11.87;2.63;;;4.80;99.90;;;;;;4899004;29;20248;-76
2023/12/22 04:44:23;;;;;;;6.73;1.77;;;4.80;99.90;;;;;;4902879;29;20314;-76
2023/12/22 04:46:49;;;;;;;8.67;2.23;;;4.80;99.90;;;;;;4902128;29;20219;-77
2023/12/22 04:49:15;;;;;;;13.60;2.47;;;4.90;99.90;;;;;;4901750;29;20483;-78
2023/12/22 04:51:40;;;;;;;4.97;2.30;;;4.90;99.90;;;;;;4901131;29;20194;-75
2023/12/22 04:54:06;;;;;;;5.43;2.10;;;4.90;99.90;;;;;;4901717;29;20580;-77
2023/12/22 04:56:32;;;;;;;9.93;2.33;;;5.00;99.90;;;;;;4902048;29;20529;-77
2023/12/22 04:58:58;;;;;;;7.33;2.60;;;5.00;99.90;;;;;;4903107;29;20602;-77
2023/12/22 05:01:23;;;;;;;7.80;1.87;;;5.00;99.90;;;;;;4905039;29;20474;-77
2023/12/22 05:03:49;;;;;;;3.80;2.10;;;5.00;99.90;;;;;;4891101;29;20195;-78
2023/12/22 05:06:15;;;;;;;6.70;1.90;;;5.00;99.90;;;;;;4909499;29;20460;-77
2023/12/22 05:08:41;;;;;;;8.93;2.63;;;5.00;99.90;;;;;;4893451;29;20187;-77
2023/12/22 05:11:06;;;;;;;6.63;2.50;;;5.10;99.90;;;;;;4892364;29;20255;-77
2023/12/22 05:13:32;;;;;;;7.57;2.10;;;5.10;99.90;;;;;;4910300;29;20195;-76
2023/12/22 05:15:58;;;;;;;10.80;2.50;;;5.10;99.90;;;;;;4894776;29;20721;-76
2023/12/22 05:18:24;;;;;;;9.60;2.60;;;5.20;99.90;;;;;;4908177;29;20191;-77
2023/12/22 05:20:49;;;;;;;8.67;3.10;;;5.30;99.90;;;;;;4892856;29;20226;-78
2023/12/22 05:23:16;;;;;;;14.70;3.40;;;5.30;99.90;;;;;;4894673;29;20429;-78
2023/12/22 05:25:42;;;;;;;7.77;3.77;;;5.40;99.90;;;;;;4894450;29;20225;-78
2023/12/22 05:28:08;;;;;;;7.33;2.50;;;5.40;99.90;;;;;;4910862;29;20427;-78
2023/12/22 05:30:33;;;;;;;14.43;3.33;;;5.50;99.90;;;;;;4897118;29;20579;-78
2023/12/22 05:32:59;;;;;;;17.57;4.07;;;5.50;99.90;;;;;;4895735;29;20412;-78
2023/12/22 05:35:24;;;;;;;11.20;3.70;;;5.50;99.90;;;;;;4897831;29;20466;-78
2023/12/22 05:37:50;;;;;;;27.70;4.57;;;5.60;99.90;;;;;;4896285;29;20650;-79
2023/12/22 05:40:16;;;;;;;17.87;4.37;;;5.60;99.90;;;;;;4895875;29;20222;-78
2023/12/22 05:42:42;;;;;;;20.40;5.23;;;5.60;99.90;;;;;;4895256;29;20342;-77
2023/12/22 05:45:11;;;;;;;25.30;4.50;;;5.60;99.90;;;;;;4908280;29;20231;-78
2023/12/22 05:47:43;;;;;;;27.03;6.17;;;5.60;99.90;;;;;;4897411;29;20460;-79
2023/12/22 05:50:13;;;;;;;22.13;5.13;;;5.70;99.90;;;;;;4911430;29;20538;-77
2023/12/22 05:52:41;;;;;;;18.67;4.57;;;5.70;99.90;;;;;;4888517;29;20442;-78
2023/12/22 05:55:10;;;;;;;21.83;4.67;;;5.70;99.90;;;;;;4896921;29;20478;-79
2023/12/22 05:57:36;;;;;;;20.63;4.57;;;5.70;99.90;;;;;;4897686;29;20471;-79
2023/12/22 06:00:07;;;;;;;20.03;4.53;;;5.70;99.90;;;;;;4895932;29;20486;-79
2023/12/22 06:02:36;;;;;;;17.27;4.00;;;5.70;99.90;;;;;;4892242;29;20528;-78
2023/12/22 06:05:03;;;;;;;25.23;4.20;;;5.60;99.90;;;;;;4913243;29;20830;-77
2023/12/22 06:07:28;;;;;;;25.97;4.00;;;5.60;99.90;;;;;;4898748;29;20435;-78
2023/12/22 06:09:54;;;;;;;25.97;4.50;;;5.60;99.90;;;;;;4915943;29;20479;-79
2023/12/22 06:12:20;;;;;;;35.93;5.00;;;5.60;99.90;;;;;;4915724;29;20538;-78
2023/12/22 06:14:45;;;;;;;13.10;4.20;;;5.60;99.90;;;;;;4902932;29;20241;-77
2023/12/22 06:17:11;;;;;;;22.57;4.57;;;5.60;99.90;;;;;;4936729;29;20189;-78
2023/12/22 06:19:37;;;;;;;16.93;4.37;;;5.60;99.90;;;;;;4949400;29;20233;-78
2023/12/22 06:22:03;;;;;;;26.60;5.17;;;5.60;99.90;;;;;;4953271;29;20461;-79
2023/12/22 06:24:29;;;;;;;24.63;5.43;;;5.60;99.90;;;;;;4955999;29;20312;-79
2023/12/22 06:26:55;;;;;;;30.87;5.23;;;5.60;99.90;;;;;;4954731;29;20448;-80
2023/12/22 06:29:22;;;;;;;36.07;6.27;;;5.60;99.90;;;;;;4921903;29;20276;-78
2023/12/22 06:31:50;;;;;;;25.07;5.53;;;5.70;99.90;;;;;;4934448;29;20425;-80
2023/12/22 06:34:17;;;;;;;12.13;3.33;;;5.70;99.90;;;;;;4935637;29;20437;-77
2023/12/22 06:36:43;;;;;;;19.30;4.10;;;5.70;99.90;;;;;;4952827;29;20421;-79
2023/12/22 06:39:09;;;;;;;23.47;4.50;;;5.70;99.90;;;;;;4921653;29;20486;-79
2023/12/22 06:41:34;;;;;;;26.30;4.57;;;5.70;99.90;;;;;;4920744;29;20430;-78
2023/12/22 06:44:01;;;;;;;30.10;5.40;;;5.80;99.90;;;;;;4955102;29;20232;-78
2023/12/22 06:46:28;;;;;;;25.07;6.80;;;5.80;99.90;;;;;;4932838;29;20202;-77
2023/12/22 06:48:55;;;;;;;36.63;5.73;;;5.90;99.90;;;;;;4950800;29;20429;-80
2023/12/22 06:51:24;;;;;;;15.33;4.57;;;5.90;99.90;;;;;;4940888;29;20413;-78
2023/12/22 06:53:50;;;;;;;25.77;4.50;;;5.90;99.90;;;;;;4949021;29;20424;-78
2023/12/22 06:56:18;;;;;;;13.93;2.90;;;5.90;99.90;;;;;;4901804;29;20439;-78
2023/12/22 06:58:46;;;;;;;12.67;2.60;;;5.80;99.90;;;;;;4917162;29;20411;-80
2023/12/22 07:01:19;;;;;;;6.70;2.33;;;5.60;99.90;;;;;;4918082;29;20519;-77
2023/12/22 07:03:49;;;;;;;7.43;2.97;;;5.50;99.90;;;;;;4916875;29;20431;-77
2023/12/22 07:06:17;;;;;;;14.20;2.23;;;5.40;99.90;;;;;;4916282;29;20452;-79
2023/12/22 07:08:42;;;;;;;13.60;3.33;;;5.40;99.90;;;;;;4916957;29;20419;-78
2023/12/22 07:11:09;;;;;;;11.60;3.10;;;5.50;99.90;;;;;;4916083;29;20463;-79
2023/12/22 07:13:35;;;;;;;14.60;2.80;;;5.60;99.90;;;;;;4915134;29;20210;-78
2023/12/22 07:16:02;;;;;;;18.43;2.73;;;5.60;99.90;;;;;;4916999;29;20459;-78
2023/12/22 07:18:31;;;;;;;4.40;2.00;;;5.70;99.90;;;;;;4913846;29;20262;-78
2023/12/22 07:21:18;;;;;;;24.30;6.33;;;5.70;99.90;;;;;;4902469;29;20560;-80
2023/12/22 07:23:44;;;;;;;27.77;3.60;;;5.70;99.90;;;;;;4899880;29;20862;-80
2023/12/22 07:26:12;;;;;;;22.63;5.90;;;5.70;99.90;;;;;;4917887;29;20495;-80
2023/12/22 07:28:39;;;;;;;13.10;3.80;;;5.70;99.90;;;;;;4902096;29;20185;-79
2023/12/22 07:31:05;;;;;;;17.73;4.57;;;5.80;99.90;;;;;;4917492;29;20415;-79
2023/12/22 07:33:31;;;;;;;18.43;4.90;;;5.80;99.90;;;;;;4915917;29;20179;-79
2023/12/22 07:36:18;;;;;;;14.67;5.20;;;5.90;99.90;;;;;;4919509;29;20214;-80
2023/12/22 07:38:44;;;;;;;34.33;6.87;;;6.00;99.90;;;;;;4905441;29;20420;-78
2023/12/22 07:41:10;;;;;;;25.20;7.37;;;6.00;99.90;;;;;;4900543;29;20497;-79
2023/12/22 07:43:36;;;;;;;23.70;6.63;;;6.10;99.90;;;;;;4918102;29;20183;-79
2023/12/22 07:46:02;;;;;;;17.83;5.10;;;6.00;99.90;;;;;;4919571;29;20454;-79
2023/12/22 07:48:29;;;;;;;24.23;5.53;;;6.10;99.90;;;;;;4904023;29;20175;-80
2023/12/22 07:50:55;;;;;;;23.73;6.10;;;6.10;99.90;;;;;;4919721;29;20601;-78
2023/12/22 07:53:21;;;;;;;21.40;5.10;;;6.10;99.90;;;;;;4904408;29;20171;-78
2023/12/22 07:55:47;;;;;;;18.60;5.27;;;6.20;99.90;;;;;;4920867;29;20279;-80
2023/12/22 07:58:13;;;;;;;38.67;7.20;;;6.20;99.90;;;;;;4889095;29;20419;-78
2023/12/22 08:00:39;;;;;;;23.70;6.70;;;6.20;99.90;;;;;;4904443;29;20614;-79
2023/12/22 08:03:22;;;;;;;19.13;5.07;;;6.30;99.90;;;;;;4885646;29;20447;-79
2023/12/22 08:05:50;;;;;;;34.33;7.80;;;6.30;99.90;;;;;;4897543;29;20471;-79
2023/12/22 08:08:16;;;;;;;33.90;7.93;;;6.40;99.90;;;;;;4883536;29;20467;-79
2023/12/22 08:10:44;;;;;;;47.57;9.40;;;6.40;99.90;;;;;;4884652;29;20440;-81
2023/12/22 08:13:11;;;;;;;39.00;8.20;;;6.40;99.90;;;;;;4869228;29;20460;-79
2023/12/22 08:15:42;;;;;;;39.33;6.70;;;6.40;99.90;;;;;;4884600;29;20455;-79
2023/12/22 08:18:08;;;;;;;26.67;5.03;;;6.40;99.90;;;;;;4886305;29;20420;-78
2023/12/22 08:20:34;;;;;;;25.00;5.60;;;6.40;99.90;;;;;;4887260;29;20557;-81
2023/12/22 08:23:05;;;;;;;22.60;4.63;;;6.30;99.90;;;;;;4888523;29;20239;-82
2023/12/22 08:25:41;;;;;;;18.97;5.00;;;6.30;99.90;;;;;;4904507;29;20432;-83
2023/12/22 08:28:07;;;;;;;26.07;5.77;;;6.20;99.90;;;;;;4887263;29;20412;-82
2023/12/22 08:30:34;;;;;;;36.93;8.97;;;6.30;99.90;;;;;;4886912;29;20428;-79
2023/12/22 08:33:03;;;;;;;39.47;10.70;;;6.30;99.90;;;;;;4903702;29;20443;-80
2023/12/22 08:35:30;;;;;;;38.23;12.80;;;6.40;99.90;;;;;;4886437;29;20431;-79
2023/12/22 08:37:57;;;;;;;49.60;13.27;;;6.50;99.90;;;;;;4902096;29;20455;-80
2023/12/22 08:40:45;;;;;;;40.57;11.67;;;6.50;99.90;;;;;;4918160;29;20248;-79
2023/12/22 08:43:15;;;;;;;30.63;8.80;;;6.60;99.90;;;;;;4926590;29;20450;-79
2023/12/22 08:45:42;;;;;;;51.47;10.80;;;6.60;99.90;;;;;;4922010;29;20515;-80
2023/12/22 08:48:09;;;;;;;50.40;10.40;;;6.70;99.90;;;;;;4922326;29;20403;-80
2023/12/22 08:50:35;;;;;;;34.47;8.20;;;6.70;99.90;;;;;;4923925;29;20416;-80
2023/12/22 08:53:01;;;;;;;29.83;7.50;;;6.70;99.90;;;;;;4890396;29;20411;-79
2023/12/22 08:55:29;;;;;;;39.47;8.60;;;6.80;99.90;;;;;;4907011;29;20542;-79
2023/12/22 08:57:57;;;;;;;60.47;9.77;;;6.80;99.90;;;;;;4907949;29;20180;-80
2023/12/22 09:00:25;;;;;;;55.13;9.70;;;6.80;99.90;;;;;;4954758;28;20474;-82
2023/12/22 09:02:53;;;;;;;50.80;8.63;;;6.80;99.90;;;;;;4922787;29;20422;-81
2023/12/22 09:05:21;;;;;;;40.80;9.10;;;6.80;99.90;;;;;;4908202;29;20427;-80
2023/12/22 09:07:59;;;;;;;40.17;9.60;;;6.80;99.90;;;;;;4924065;29;20475;-81
2023/12/22 09:10:25;;;;;;;31.53;7.30;;;6.90;99.90;;;;;;4906264;29;20471;-80
2023/12/22 09:12:51;;;;;;;52.13;11.57;;;6.90;99.90;;;;;;4907322;29;20562;-80
2023/12/22 09:15:18;;;;;;;53.37;11.03;;;7.00;99.90;;;;;;4922161;29;20515;-79
2023/12/22 09:17:45;;;;;;;36.47;8.80;;;7.00;99.90;;;;;;4906571;29;20435;-81
2023/12/22 09:20:54;;;;;;;39.13;8.80;;;7.00;99.90;;;;;;4907785;29;20458;-80
2023/12/22 09:23:31;;;;;;;53.43;12.53;;;7.00;99.90;;;;;;4923912;29;20432;-81
2023/12/22 09:25:58;;;;;;;46.77;9.73;;;7.00;99.90;;;;;;4890701;29;20450;-80
2023/12/22 09:28:33;;;;;;;43.83;8.83;;;7.10;99.90;;;;;;4923176;29;20407;-80
2023/12/22 09:31:46;;;;;;;35.77;8.30;;;7.10;99.90;;;;;;5046431;23;20509;-82
2023/12/22 09:34:12;;;;;;;41.10;8.90;;;7.10;99.90;;;;;;4926687;29;20415;-79
2023/12/22 09:36:56;;;;;;;36.60;9.20;;;7.20;99.90;;;;;;4941827;28;20506;-79
2023/12/22 09:39:23;;;;;;;40.13;10.53;;;7.20;99.90;;;;;;4910624;29;20470;-81
2023/12/22 09:41:50;;;;;;;38.73;8.60;;;7.20;99.90;;;;;;4895670;29;20473;-80
2023/12/22 09:44:20;;;;;;;56.17;9.60;;;7.30;99.90;;;;;;4942427;29;20430;-82
2023/12/22 09:46:50;;;;;;;45.93;9.83;;;7.30;99.90;;;;;;4941579;29;20453;-82
2023/12/22 09:49:38;;;;;;;52.10;9.57;;;7.30;99.90;;;;;;4940882;29;20431;-81
2023/12/22 09:52:07;;;;;;;28.17;8.10;;;7.30;99.90;;;;;;4941750;29;20411;-80
2023/12/22 09:54:38;;;;;;;24.57;7.83;;;7.40;99.90;;;;;;4926591;29;20443;-79
2023/12/22 09:57:10;;;;;;;41.77;7.20;;;7.40;99.90;;;;;;4942308;29;20423;-80
2023/12/22 09:59:37;;;;;;;31.13;7.10;;;7.40;99.90;;;;;;4989654;23;21537;-78
2023/12/22 10:02:07;;;;;;;41.50;8.00;;;7.50;99.90;;;;;;4940996;29;20442;-81
2023/12/22 10:04:46;;;;;;;44.03;10.13;;;7.50;99.90;;;;;;4896402;29;20454;-82
2023/12/22 10:07:29;;;;;;;30.97;7.90;;;7.40;99.90;;;;;;4911111;29;20444;-82
2023/12/22 10:12:46;;;;;;;31.97;7.30;;;7.40;99.90;;;;;;5470772;23;20520;-80
2023/12/22 10:15:23;;;;;;;29.00;7.90;;;7.40;99.90;;;;;;4908087;28;20463;-81
2023/12/22 10:18:04;;;;;;;33.87;7.07;;;7.40;99.90;;;;;;4950702;28;20434;-82
2023/12/22 10:34:43;;;;;;;18.47;6.07;;;7.50;99.90;;;;;;5161622;23;20496;-84
2023/12/22 10:37:14;;;;;;;17.70;5.13;;;7.50;99.90;;;;;;4950776;28;20424;-82
2023/12/22 10:43:00;;;;;;;20.23;4.97;;;7.60;99.90;;;;;;5174077;23;20493;-80
2023/12/22 10:49:01;;;;;;;15.33;5.73;;;7.70;99.90;;;;;;5377462;23;20484;-82
2023/12/22 10:51:51;;;;;;;18.07;7.20;;;7.80;99.90;;;;;;4944966;28;20410;-79
2023/12/22 10:54:37;;;;;;;26.90;7.53;;;7.80;99.90;;;;;;4944930;28;20501;-81
2023/12/22 10:57:38;;;;;;;21.73;8.40;;;7.80;99.90;;;;;;4906667;29;20451;-82
2023/12/22 11:04:31;;;;;;;15.97;5.37;;;7.90;99.90;;;;;;5787038;23;20501;-82
2023/12/22 11:07:24;;;;;;;14.50;5.37;;;7.90;99.90;;;;;;4960098;28;20501;-82
2023/12/22 11:10:10;;;;;;;16.77;5.77;;;7.90;99.90;;;;;;4926183;28;20405;-81
2023/12/22 11:12:52;;;;;;;17.00;6.10;;;8.00;99.90;;;;;;4924071;28;20438;-81
2023/12/22 11:15:59;;;;;;;19.33;7.10;;;8.00;99.90;;;;;;4915786;28;20518;-80
2023/12/22 11:18:55;;;;;;;14.37;5.13;;;8.10;99.90;;;;;;4964959;28;20444;-82
2023/12/22 11:21:28;;;;;;;21.67;6.13;;;8.10;99.90;;;;;;4970520;28;20458;-81
2023/12/22 11:23:55;;;;;;;10.37;5.93;;;8.00;99.90;;;;;;4953836;28;20447;-82
2023/12/22 12:17:10;;;;;;;10.23;6.83;;;8.50;99.90;;;;;;5704634;23;20502;-82
2023/12/22 14:12:41;;;;;;;6.93;1.70;;;10.20;99.90;;;;;;5007153;23;20553;-81
2023/12/22 14:15:13;;;;;;;2.53;1.50;;;10.00;99.90;;;;;;4911546;29;20511;-81
2023/12/22 14:17:46;;;;;;;6.20;1.37;;;9.80;99.90;;;;;;4907069;29;20439;-81
2023/12/22 14:20:32;;;;;;;7.83;2.03;;;9.70;99.90;;;;;;4908207;29;20458;-81
2023/12/22 14:22:59;;;;;;;5.30;1.77;;;9.60;99.90;;;;;;4895204;29;20464;-79
2023/12/22 14:25:28;;;;;;;4.17;2.67;;;9.60;99.90;;;;;;4866879;29;20466;-81
2023/12/22 14:27:57;;;;;;;5.43;1.50;;;9.60;99.90;;;;;;4839522;29;20429;-79
2023/12/22 14:31:06;;;;;;;6.60;1.87;;;9.60;99.90;;;;;;4856385;29;20454;-82
2023/12/22 14:33:43;;;;;;;2.97;1.30;;;9.60;99.90;;;;;;5103819;23;20577;-80
2023/12/22 14:36:36;;;;;;;12.50;2.03;;;9.60;99.90;;;;;;4895300;28;20445;-80
2023/12/22 14:39:41;;;;;;;4.50;2.30;;;9.50;99.90;;;;;;5070631;23;20557;-80
2023/12/22 14:42:16;;;;;;;3.10;1.53;;;9.60;99.90;;;;;;4929148;29;20444;-80
2023/12/22 14:45:22;;;;;;;8.00;1.67;;;9.60;99.90;;;;;;4946498;28;20402;-81
2023/12/22 14:48:13;;;;;;;6.33;1.73;;;9.60;99.90;;;;;;4951118;29;20496;-81
2023/12/22 14:50:44;;;;;;;5.73;1.33;;;9.60;99.90;;;;;;4921060;28;20414;-81
2023/12/22 14:53:18;;;;;;;10.97;2.90;;;9.60;99.90;;;;;;4929662;29;20505;-80
2023/12/22 14:59:03;;;;;;;2.10;1.53;;;9.60;99.90;;;;;;5315627;23;20560;-79
2023/12/22 15:01:34;;;;;;;6.87;1.40;;;9.60;99.90;;;;;;4944181;29;20504;-79
2023/12/22 15:04:02;;;;;;;4.07;1.57;;;9.70;99.90;;;;;;4928540;29;20478;-80
2023/12/22 15:06:35;;;;;;;6.63;3.07;;;9.70;99.90;;;;;;4921778;29;20506;-80
2023/12/22 15:09:04;;;;;;;3.90;1.90;;;9.70;99.90;;;;;;4935385;29;20439;-80
2023/12/22 15:11:31;;;;;;;4.80;2.33;;;9.70;99.90;;;;;;4921220;29;20436;-80
2023/12/22 15:14:40;;;;;;;7.23;2.23;;;9.70;99.90;;;;;;4899661;29;20437;-80
2023/12/22 15:17:25;;;;;;;9.37;2.77;;;9.60;99.90;;;;;;4884638;29;20444;-81
2023/12/22 15:20:08;;;;;;;5.33;2.77;;;9.50;99.90;;;;;;4868603;29;20465;-80
2023/12/22 15:22:45;;;;;;;4.10;2.00;;;9.30;99.90;;;;;;4884440;29;20405;-80
2023/12/22 15:25:40;;;;;;;6.73;1.93;;;9.20;99.90;;;;;;4883486;29;20453;-80
2023/12/22 15:28:08;;;;;;;4.00;1.87;;;9.00;99.90;;;;;;4889946;29;20426;-80
2023/12/22 15:33:13;;;;;;;7.40;2.50;;;9.10;99.90;;;;;;5016276;23;20474;-81
2023/12/22 15:35:54;;;;;;;8.40;2.20;;;9.10;99.90;;;;;;4924774;29;20462;-82
2023/12/22 15:38:24;;;;;;;8.40;3.00;;;9.10;99.90;;;;;;4909631;29;20162;-80
2023/12/22 15:40:53;;;;;;;6.20;2.80;;;9.10;99.90;;;;;;4930538;29;20477;-79
2023/12/22 15:43:21;;;;;;;7.70;2.10;;;9.10;99.90;;;;;;4928071;28;20454;-81
2023/12/22 15:45:54;;;;;;;8.30;2.30;;;9.10;99.90;;;;;;4917008;29;20237;-80
2023/12/22 15:48:21;;;;;;;6.90;2.10;;;9.00;99.90;;;;;;4909240;29;20403;-80
2023/12/22 15:50:48;;;;;;;6.00;1.83;;;9.00;99.90;;;;;;4912666;29;20432;-79
2023/12/22 15:53:16;;;;;;;4.93;1.70;;;9.00;99.90;;;;;;4912270;29;20430;-81
2023/12/22 15:55:48;;;;;;;4.93;1.57;;;9.00;99.90;;;;;;4909234;29;20456;-80
2023/12/22 15:58:40;;;;;;;6.80;2.30;;;8.90;99.90;;;;;;4940028;29;20426;-80
2023/12/22 16:01:06;;;;;;;4.60;2.20;;;9.00;99.90;;;;;;4929204;29;20486;-81
2023/12/22 16:03:41;;;;;;;5.90;3.43;;;9.00;99.90;;;;;;4925943;29;20406;-79
2023/12/22 16:06:11;;;;;;;7.40;3.07;;;9.00;99.90;;;;;;4930711;29;20433;-81
2023/12/22 16:08:37;;;;;;;7.50;1.97;;;9.00;99.90;;;;;;4923133;29;20429;-79
2023/12/22 16:11:05;;;;;;;5.20;1.97;;;9.00;99.90;;;;;;4924873;29;20173;-80
2023/12/22 16:13:34;;;;;;;5.67;2.10;;;9.00;99.90;;;;;;4927128;29;20425;-81
2023/12/22 16:16:30;;;;;;;5.80;2.80;;;9.00;99.90;;;;;;4936947;29;20434;-81
2023/12/22 16:19:06;;;;;;;7.30;2.67;;;9.10;99.90;;;;;;4871751;29;20473;-78
2023/12/22 16:21:40;;;;;;;9.40;2.30;;;9.10;99.90;;;;;;4897935;29;20535;-80
2023/12/22 16:24:06;;;;;;;10.17;2.27;;;9.10;99.90;;;;;;4849915;29;20439;-81